Map

Track Data

SID SEASON NUMBER BASIN SUBBASIN NAME ISO_TIME NATURE LAT LON WMO_WIND WMO_PRES WMO_AGENCY TRACK_TYPE DIST2LAND LANDFALL IFLAG USA_AGENCY USA_ATCF_ID USA_LAT USA_LON USA_RECORD USA_STATUS USA_WIND USA_PRES USA_SSHS USA_R34_NE USA_R34_SE USA_R34_SW USA_R34_NW USA_R50_NE USA_R50_SE USA_R50_SW USA_R50_NW USA_R64_NE USA_R64_SE USA_R64_SW USA_R64_NW USA_POCI USA_ROCI USA_RMW USA_EYE TOKYO_LAT TOKYO_LON TOKYO_GRADE TOKYO_WIND TOKYO_PRES TOKYO_R50_DIR TOKYO_R50_LONG TOKYO_R50_SHORT TOKYO_R30_DIR TOKYO_R30_LONG TOKYO_R30_SHORT TOKYO_LAND CMA_LAT CMA_LON CMA_CAT CMA_WIND CMA_PRES HKO_LAT HKO_LON HKO_CAT HKO_WIND HKO_PRES NEWDELHI_LAT NEWDELHI_LON NEWDELHI_GRADE NEWDELHI_WIND NEWDELHI_PRES NEWDELHI_CI NEWDELHI_DP NEWDELHI_POCI REUNION_LAT REUNION_LON REUNION_TYPE REUNION_WIND REUNION_PRES REUNION_TNUM REUNION_CI REUNION_RMW REUNION_R34_NE REUNION_R34_SE REUNION_R34_SW REUNION_R34_NW REUNION_R50_NE REUNION_R50_SE REUNION_R50_SW REUNION_R50_NW REUNION_R64_NE REUNION_R64_SE REUNION_R64_SW REUNION_R64_NW BOM_LAT BOM_LON BOM_TYPE BOM_WIND BOM_PRES BOM_TNUM BOM_CI BOM_RMW BOM_R34_NE BOM_R34_SE BOM_R34_SW BOM_R34_NW BOM_R50_NE BOM_R50_SE BOM_R50_SW BOM_R50_NW BOM_R64_NE BOM_R64_SE BOM_R64_SW BOM_R64_NW BOM_ROCI BOM_POCI BOM_EYE BOM_POS_METHOD BOM_PRES_METHOD NADI_LAT NADI_LON NADI_CAT NADI_WIND NADI_PRES WELLINGTON_LAT WELLINGTON_LON WELLINGTON_WIND WELLINGTON_PRES DS824_LAT DS824_LON DS824_STAGE DS824_WIND DS824_PRES TD9636_LAT TD9636_LON TD9636_STAGE TD9636_WIND TD9636_PRES TD9635_LAT TD9635_LON TD9635_WIND TD9635_PRES TD9635_ROCI NEUMANN_LAT NEUMANN_LON NEUMANN_CLASS NEUMANN_WIND NEUMANN_PRES MLC_LAT MLC_LON MLC_CLASS MLC_WIND MLC_PRES USA_GUST BOM_GUST BOM_GUST_PER REUNION_GUST REUNION_GUST_PER USA_SEAHGT USA_SEARAD_NE USA_SEARAD_SE USA_SEARAD_SW USA_SEARAD_NW STORM_SPEED STORM_DIR
1920308N12128 1920 49 WP MM NOT_NAMED 1920-11-03 10:00:00 NR 12.2000 127.800 main 250 195 __________O___ -1 12.2000 127.800 4 14 275
1920308N12128 1920 49 WP MM NOT_NAMED 1920-11-03 12:00:00 NR 12.2434 127.329 main 195 120 __________P___ -1 12.2434 127.329 4 14 275
1920308N12128 1920 49 WP MM NOT_NAMED 1920-11-03 15:00:00 NR 12.3038 126.637 main 120 58 __________P___ -1 12.3038 126.637 4 13 275
1920308N12128 1920 49 WP MM NOT_NAMED 1920-11-03 18:00:00 NR 12.3547 125.981 main 58 10 __________P___ -1 12.3547 125.981 4 12 274
1920308N12128 1920 49 WP MM NOT_NAMED 1920-11-03 21:00:00 NR 12.3916 125.383 main 10 0 __________P___ -1 12.3916 125.383 4 11 273
1920308N12128 1920 49 WP MM NOT_NAMED 1920-11-03 22:00:00 NR 12.4000 125.200 main 0 0 __________O___ -1 12.4000 125.200 4 10 272
1920308N12128 1920 49 WP MM NOT_NAMED 1920-11-04 00:00:00 NR 12.4107 124.862 main 0 0 __________P___ -1 12.4107 124.862 4 9 271
1920308N12128 1920 49 WP MM NOT_NAMED 1920-11-04 03:00:00 NR 12.4147 124.406 main 0 0 __________P___ -1 12.4147 124.406 4 9 270
1920308N12128 1920 49 WP MM NOT_NAMED 1920-11-04 06:00:00 NR 12.4098 123.980 main 15 10 __________P___ -1 12.4098 123.980 4 8 269
1920308N12128 1920 49 WP MM NOT_NAMED 1920-11-04 09:00:00 NR 12.4022 123.550 main 10 0 __________P___ -1 12.4022 123.550 4 9 269
1920308N12128 1920 49 WP MM NOT_NAMED 1920-11-04 10:00:00 NR 12.4000 123.400 main 0 0 __________O___ -1 12.4000 123.400 4 9 269
1920308N12128 1920 49 WP MM NOT_NAMED 1920-11-04 12:00:00 NR 12.3944 123.083 main 21 21 __________P___ -1 12.3944 123.083 4 10 269
1920308N12128 1920 49 WP MM NOT_NAMED 1920-11-04 15:00:00 NR 12.3861 122.588 main 68 58 __________P___ -1 12.3861 122.588 4 10 269
1920308N12128 1920 49 WP MM NOT_NAMED 1920-11-04 18:00:00 NR 12.3835 122.063 main 58 10 __________P___ -1 12.3835 122.063 4 11 270
1920308N12128 1920 49 WP MM NOT_NAMED 1920-11-04 21:00:00 NR 12.3930 121.499 main 10 0 __________P___ -1 12.3930 121.499 4 11 271
1920308N12128 1920 49 WP MM NOT_NAMED 1920-11-04 22:00:00 NR 12.4000 121.300 main 0 0 __________O___ -1 12.4000 121.300 4 12 274
1920308N12128 1920 49 WP MM NOT_NAMED 1920-11-05 00:00:00 NR 12.4323 120.890 main 10 10 __________P___ -1 12.4323 120.890 4 13 275
1920308N12128 1920 49 WP MM NOT_NAMED 1920-11-05 03:00:00 NR 12.4936 120.237 main 68 68 __________P___ -1 12.4936 120.237 4 13 275
1920308N12128 1920 49 WP MM NOT_NAMED 1920-11-05 06:00:00 NR 12.5538 119.549 main 124 124 __________P___ -1 12.5538 119.549 4 14 274
1920308N12128 1920 49 WP MM NOT_NAMED 1920-11-05 09:00:00 NR 12.5941 118.839 main 164 164 __________P___ -1 12.5941 118.839 4 14 273
1920308N12128 1920 49 WP MM NOT_NAMED 1920-11-05 10:00:00 NR 12.6000 118.600 main 175 175 __________O___ -1 12.6000 118.600 4 14 269
1920308N12128 1920 49 WP MM NOT_NAMED 1920-11-05 12:00:00 NR 12.5869 118.112 main 210 210 __________P___ -1 12.5869 118.112 4 14 267
1920308N12128 1920 49 WP MM NOT_NAMED 1920-11-05 15:00:00 NR 12.5420 117.367 main 261 271 __________P___ -1 12.5420 117.367 4 15 266
1920308N12128 1920 49 WP MM NOT_NAMED 1920-11-05 18:00:00 NR 12.4806 116.630 main 337 337 __________P___ -1 12.4806 116.630 4 14 265
1920308N12128 1920 49 WP MM NOT_NAMED 1920-11-05 21:00:00 NR 12.4183 115.924 main 404 404 __________P___ -1 12.4183 115.924 4 14 265
1920308N12128 1920 49 WP MM NOT_NAMED 1920-11-05 22:00:00 NR 12.4000 115.700 main 424 424 __________O___ -1 12.4000 115.700 4 12 265
1920308N12128 1920 49 WP MM NOT_NAMED 1920-11-06 00:00:00 NR 12.3663 115.293 main 450 450 __________P___ -1 12.3663 115.293 4 12 265
1920308N12128 1920 49 WP MM NOT_NAMED 1920-11-06 03:00:00 NR 12.3224 114.720 main 485 485 __________P___ -1 12.3224 114.720 4 11 266
1920308N12128 1920 49 WP MM NOT_NAMED 1920-11-06 06:00:00 NR 12.2950 114.165 main 511 446 __________P___ -1 12.2950 114.165 4 11 268
1920308N12128 1920 49 WP MM NOT_NAMED 1920-11-06 09:00:00 NR 12.2933 113.598 main 446 425 __________P___ -1 12.2933 113.598 4 11 270
1920308N12128 1920 49 WP MM NOT_NAMED 1920-11-06 10:00:00 NR 12.3000 113.400 main 425 381 __________O___ -1 12.3000 113.400 4 12 272
1920308N12128 1920 49 WP MM NOT_NAMED 1920-11-06 12:00:00 NR 12.3141 112.960 main 381 304 __________P___ -1 12.3141 112.960 4 13 273
1920308N12128 1920 49 WP MM NOT_NAMED 1920-11-06 15:00:00 NR 12.3603 112.274 main 304 229 __________P___ -1 12.3603 112.274 4 14 275
1920308N12128 1920 49 WP MM NOT_NAMED 1920-11-06 18:00:00 NR 12.4390 111.582 main 229 152 __________P___ -1 12.4390 111.582 4 13 278
1920308N12128 1920 49 WP MM NOT_NAMED 1920-11-06 21:00:00 NR 12.5534 110.913 main 152 130 __________P___ -1 12.5534 110.913 4 13 281
1920308N12128 1920 49 WP MM NOT_NAMED 1920-11-06 22:00:00 NR 12.6000 110.700 main 130 87 __________O___ -1 12.6000 110.700 4 12 283
1920308N12128 1920 49 WP MM NOT_NAMED 1920-11-07 00:00:00 NR 12.6937 110.305 main 87 21 __________P___ -1 12.6937 110.305 4 12 286
1920308N12128 1920 49 WP MM NOT_NAMED 1920-11-07 03:00:00 NR 12.8661 109.743 main 21 0 __________P___ -1 12.8661 109.743 4 11 290
1920308N12128 1920 49 WP MM NOT_NAMED 1920-11-07 06:00:00 NR 13.0738 109.206 main 0 0 __________P___ -1 13.0738 109.206 4 11 293
1920308N12128 1920 49 WP MM NOT_NAMED 1920-11-07 09:00:00 NR 13.3135 108.677 main 0 0 __________P___ -1 13.3135 108.677 4 11 295
1920308N12128 1920 49 WP MM NOT_NAMED 1920-11-07 10:00:00 NR 13.4000 108.500 main 0 0 __________O___ -1 13.4000 108.500 4 12 297
1920308N12128 1920 49 WP MM NOT_NAMED 1920-11-07 12:00:00 NR 13.5818 108.142 main 0 0 __________P___ -1 13.5818 108.142 4 12 298
1920308N12128 1920 49 WP MM NOT_NAMED 1920-11-07 15:00:00 NR 13.8729 107.597 main 0 0 __________P___ -1 13.8729 107.597 4 12 299
1920308N12128 1920 49 WP MM NOT_NAMED 1920-11-07 18:00:00 NR 14.1796 107.045 main 0 0 __________P___ -1 14.1796 107.045 4 12 300
1920308N12128 1920 49 WP MM NOT_NAMED 1920-11-07 21:00:00 NR 14.4945 106.487 main 0 0 __________P___ -1 14.4945 106.487 4 13 300
1920308N12128 1920 49 WP MM NOT_NAMED 1920-11-07 22:00:00 NR 14.6000 106.300 main 0 __________O___ -1 14.6000 106.300 4 13 300

Digital Typhoon Data and Search

About IBTrACS Database

This database is a web-friendly format of International Best Track Archive for Climate Stewardship (IBTrACS), a global best track data archive curated by NOAA dating back to 1842.

Updated: 2021-10-08